Time;durP1;ratioP1;P1;durP2;ratioP2;P2;SDS_P1;SDS_P2;PMS_P1;PMS_P2;Temp;Humidity;BMP_temperature;BMP_pressure;BME280_temperature;BME280_humidity;BME280_pressure;Samples;Min_cycle;Max_cycle;Signal;HPM_P1;HPM_P2
2022/02/19 00:01:04;;;;;;;16.30;3.42;;;6.50;99.90;;;;;;5105163;28;20070;-69
2022/02/19 00:03:31;;;;;;;17.45;3.90;;;6.40;99.90;;;;;;5090236;28;20028;-68
2022/02/19 00:05:57;;;;;;;17.20;4.22;;;6.40;99.90;;;;;;5103156;28;20046;-69
2022/02/19 00:08:22;;;;;;;15.30;3.55;;;6.40;99.90;;;;;;5102858;28;20107;-69
2022/02/19 00:10:48;;;;;;;21.20;4.35;;;6.40;99.90;;;;;;5103132;28;20100;-69
2022/02/19 00:13:14;;;;;;;20.80;3.85;;;6.40;99.90;;;;;;5104160;28;20036;-69
2022/02/19 00:15:40;;;;;;;11.65;2.83;;;6.40;99.90;;;;;;5094930;28;20044;-69
2022/02/19 00:18:06;;;;;;;17.55;3.83;;;6.40;99.90;;;;;;5102153;28;20052;-69
2022/02/19 00:20:32;;;;;;;23.02;6.07;;;6.30;99.90;;;;;;5087095;28;20048;-69
2022/02/19 00:22:59;;;;;;;18.02;3.47;;;6.20;99.90;;;;;;5104052;28;20044;-69
2022/02/19 00:25:25;;;;;;;17.67;3.63;;;6.20;99.90;;;;;;5104321;28;20058;-69
2022/02/19 00:27:50;;;;;;;21.08;3.60;;;6.10;99.90;;;;;;5103455;28;20047;-69
2022/02/19 00:30:16;;;;;;;14.82;3.75;;;6.10;99.90;;;;;;5104009;28;20040;-69
2022/02/19 00:32:42;;;;;;;17.77;3.75;;;6.00;99.90;;;;;;5103182;28;20036;-69
2022/02/19 00:35:08;;;;;;;25.80;4.15;;;6.00;99.90;;;;;;5104003;28;20044;-69
2022/02/19 00:37:34;;;;;;;15.55;2.95;;;6.10;99.90;;;;;;5102415;28;20075;-69
2022/02/19 00:40:00;;;;;;;20.80;3.65;;;6.10;99.90;;;;;;5104175;28;20090;-69
2022/02/19 00:42:25;;;;;;;21.65;3.53;;;6.10;99.90;;;;;;5102565;28;20119;-68
2022/02/19 00:44:51;;;;;;;15.75;4.53;;;6.10;99.90;;;;;;5086956;28;20039;-69
2022/02/19 00:47:17;;;;;;;20.92;3.70;;;6.10;99.90;;;;;;5103964;28;20116;-69
2022/02/19 00:49:42;;;;;;;21.02;4.07;;;6.10;99.90;;;;;;5103585;28;20044;-68
2022/02/19 00:52:08;;;;;;;17.73;3.50;;;6.20;99.90;;;;;;5103312;28;20062;-68
2022/02/19 00:54:34;;;;;;;21.92;4.28;;;6.10;99.90;;;;;;5102654;28;20096;-69
2022/02/19 00:57:00;;;;;;;22.98;3.63;;;6.10;99.90;;;;;;5103243;28;20055;-69
2022/02/19 00:59:26;;;;;;;20.00;4.40;;;6.10;99.90;;;;;;5106329;28;20036;-69
2022/02/19 01:01:52;;;;;;;21.30;3.67;;;6.20;99.90;;;;;;5106325;28;20047;-69
2022/02/19 01:04:17;;;;;;;20.10;4.57;;;6.10;99.90;;;;;;5108119;28;20057;-69
2022/02/19 01:06:44;;;;;;;25.60;5.97;;;6.00;99.90;;;;;;5105900;28;20062;-69
2022/02/19 01:09:10;;;;;;;22.08;4.10;;;6.00;99.90;;;;;;5106627;28;20142;-69
2022/02/19 01:11:39;;;;;;;20.73;4.55;;;5.90;99.90;;;;;;5108611;28;20070;-69
2022/02/19 01:14:07;;;;;;;17.70;3.50;;;5.90;99.90;;;;;;5108412;28;20036;-69
2022/02/19 01:16:33;;;;;;;25.20;6.00;;;5.70;99.90;;;;;;5107659;28;20056;-69
2022/02/19 01:18:59;;;;;;;22.27;3.65;;;5.70;99.90;;;;;;5106496;28;20079;-69
2022/02/19 01:21:24;;;;;;;21.10;4.05;;;5.70;99.90;;;;;;5105688;28;20052;-68
2022/02/19 01:23:50;;;;;;;20.55;3.90;;;5.50;99.90;;;;;;5101696;28;20040;-68
2022/02/19 01:26:16;;;;;;;23.58;4.50;;;5.40;99.90;;;;;;5105998;28;20051;-68
2022/02/19 01:28:41;;;;;;;22.17;5.00;;;5.10;99.90;;;;;;5107271;28;20044;-68
2022/02/19 01:31:07;;;;;;;21.38;4.50;;;4.80;99.90;;;;;;5106959;28;20085;-68
2022/02/19 01:33:33;;;;;;;24.50;4.38;;;4.60;99.90;;;;;;5105833;28;20069;-68
2022/02/19 01:35:59;;;;;;;22.38;3.90;;;4.70;99.90;;;;;;5107088;28;20077;-68
2022/02/19 01:38:27;;;;;;;19.50;4.57;;;4.30;99.90;;;;;;5107061;28;20093;-68
2022/02/19 01:40:53;;;;;;;17.10;3.58;;;4.30;99.90;;;;;;5105803;28;20052;-68
2022/02/19 01:43:19;;;;;;;21.65;3.63;;;4.30;99.90;;;;;;5105862;28;20043;-68
2022/02/19 01:45:47;;;;;;;23.80;4.13;;;4.40;99.90;;;;;;5107504;28;20105;-68
2022/02/19 01:48:13;;;;;;;21.92;4.68;;;4.40;99.90;;;;;;5104965;28;20048;-68
2022/02/19 01:50:38;;;;;;;25.17;4.00;;;4.60;99.90;;;;;;5107821;28;20043;-68
2022/02/19 01:53:05;;;;;;;14.90;4.15;;;4.60;99.90;;;;;;5106295;28;20040;-68
2022/02/19 01:55:31;;;;;;;21.88;5.13;;;4.40;99.90;;;;;;5105973;28;20108;-68
2022/02/19 01:57:57;;;;;;;21.00;4.07;;;4.60;99.90;;;;;;5107270;28;20044;-68
2022/02/19 02:00:24;;;;;;;18.30;3.63;;;4.50;99.90;;;;;;5105333;28;20495;-68
2022/02/19 02:02:50;;;;;;;20.27;5.32;;;4.50;99.90;;;;;;5104935;28;20101;-68
2022/02/19 02:05:16;;;;;;;17.48;3.70;;;4.70;99.90;;;;;;5105344;28;20040;-68
2022/02/19 02:07:41;;;;;;;18.13;3.20;;;4.70;99.90;;;;;;5105916;28;20067;-68
2022/02/19 02:10:07;;;;;;;11.18;3.05;;;4.70;99.90;;;;;;5105431;28;20048;-68
2022/02/19 02:12:34;;;;;;;11.95;2.65;;;4.70;99.90;;;;;;5106929;28;20052;-68
2022/02/19 02:15:00;;;;;;;13.82;2.38;;;4.70;99.90;;;;;;5103164;28;20029;-68
2022/02/19 02:17:26;;;;;;;9.65;2.78;;;4.70;99.90;;;;;;5102950;28;20052;-68
2022/02/19 02:19:52;;;;;;;13.48;2.75;;;4.50;99.90;;;;;;5106806;28;20066;-68
2022/02/19 02:22:17;;;;;;;8.65;2.00;;;4.50;99.90;;;;;;5103604;28;20053;-68
2022/02/19 02:24:43;;;;;;;13.73;2.03;;;4.30;99.90;;;;;;5091563;28;20044;-68
2022/02/19 02:27:13;;;;;;;10.15;2.22;;;4.60;99.90;;;;;;5087484;28;20084;-68
2022/02/19 02:29:46;;;;;;;8.70;3.67;;;4.60;99.90;;;;;;5086658;28;20048;-68
2022/02/19 02:32:13;;;;;;;14.90;2.40;;;4.40;99.90;;;;;;5086214;28;20099;-68
2022/02/19 02:34:56;;;;;;;14.25;2.70;;;4.70;99.90;;;;;;5084752;28;20132;-68
2022/02/19 02:37:24;;;;;;;11.95;2.33;;;4.50;99.90;;;;;;5104803;28;20048;-68
2022/02/19 02:39:51;;;;;;;10.65;1.92;;;4.70;99.90;;;;;;5105883;28;20044;-68
2022/02/19 02:42:19;;;;;;;11.43;1.80;;;4.50;99.90;;;;;;5104992;28;20054;-68
2022/02/19 02:44:46;;;;;;;11.75;2.33;;;4.70;99.90;;;;;;5105929;28;20052;-68
2022/02/19 02:47:11;;;;;;;12.90;2.13;;;4.50;99.90;;;;;;5105044;28;20040;-68
2022/02/19 02:49:38;;;;;;;10.05;2.03;;;4.50;99.90;;;;;;5109828;28;20470;-68
2022/02/19 02:52:05;;;;;;;9.85;2.50;;;4.60;99.90;;;;;;5087172;28;20397;-68
2022/02/19 02:54:31;;;;;;;7.75;1.77;;;4.50;99.90;;;;;;5089174;28;20067;-68
2022/02/19 02:56:56;;;;;;;5.70;1.80;;;4.80;99.90;;;;;;5104007;28;20052;-68
2022/02/19 02:59:22;;;;;;;8.95;1.90;;;4.80;99.90;;;;;;5105559;28;20193;-68
2022/02/19 03:01:48;;;;;;;9.25;2.05;;;4.90;99.90;;;;;;5103795;28;20044;-68
2022/02/19 03:04:13;;;;;;;8.38;1.67;;;4.80;99.90;;;;;;5106168;28;20123;-68
2022/02/19 03:06:39;;;;;;;17.25;3.95;;;4.70;99.90;;;;;;5104875;28;20044;-69
2022/02/19 03:09:05;;;;;;;10.63;2.95;;;4.80;99.90;;;;;;5105804;28;20036;-68
2022/02/19 03:11:30;;;;;;;5.28;1.77;;;4.70;99.90;;;;;;5106333;28;20044;-68
2022/02/19 03:13:56;;;;;;;8.25;1.80;;;4.80;99.90;;;;;;5106376;28;20538;-69
2022/02/19 03:16:22;;;;;;;9.77;1.98;;;4.50;99.90;;;;;;5094229;28;20044;-69
2022/02/19 03:18:47;;;;;;;9.63;2.90;;;4.50;99.90;;;;;;5103776;28;20112;-68
2022/02/19 03:21:13;;;;;;;9.65;3.22;;;4.60;99.90;;;;;;5104383;28;20063;-68
2022/02/19 03:23:39;;;;;;;14.73;2.75;;;4.70;99.90;;;;;;5100654;28;20047;-68
2022/02/19 03:26:07;;;;;;;11.52;2.22;;;4.50;99.90;;;;;;5102647;28;20046;-69
2022/02/19 03:28:33;;;;;;;14.45;2.90;;;4.80;99.90;;;;;;5104110;28;20052;-69
2022/02/19 03:30:59;;;;;;;13.15;3.17;;;4.70;99.90;;;;;;5103769;28;20048;-68
2022/02/19 03:33:25;;;;;;;12.07;2.42;;;4.70;99.90;;;;;;5103549;28;20048;-69
2022/02/19 03:35:51;;;;;;;12.50;2.38;;;4.50;99.90;;;;;;5104180;28;20068;-68
2022/02/19 03:38:17;;;;;;;16.58;3.83;;;4.60;99.90;;;;;;5104909;28;20039;-68
2022/02/19 03:40:43;;;;;;;24.30;5.18;;;4.30;99.90;;;;;;5103610;28;20062;-68
2022/02/19 03:43:08;;;;;;;12.82;3.75;;;4.50;99.90;;;;;;5104544;28;20067;-68
2022/02/19 03:45:37;;;;;;;17.25;4.00;;;4.30;99.90;;;;;;5105380;28;20444;-67
2022/02/19 03:48:03;;;;;;;15.95;2.85;;;4.30;99.90;;;;;;5104602;28;20055;-67
2022/02/19 03:50:28;;;;;;;16.35;3.35;;;4.30;99.90;;;;;;5103385;28;20051;-68
2022/02/19 03:52:55;;;;;;;19.63;3.47;;;4.40;99.90;;;;;;5105451;28;20040;-68
2022/02/19 03:55:21;;;;;;;15.65;3.42;;;4.30;99.90;;;;;;5104018;28;20043;-68
2022/02/19 03:57:46;;;;;;;22.58;3.85;;;4.40;99.90;;;;;;5103980;28;20126;-68
2022/02/19 04:00:13;;;;;;;24.60;4.18;;;4.30;99.90;;;;;;5105364;28;20059;-68
2022/02/19 04:02:41;;;;;;;26.60;4.10;;;4.10;99.90;;;;;;5103842;28;20085;-67
2022/02/19 04:05:08;;;;;;;16.65;3.22;;;3.60;99.90;;;;;;5104883;28;20054;-67
2022/02/19 04:07:34;;;;;;;18.42;3.67;;;3.40;99.90;;;;;;5104390;28;20048;-67
2022/02/19 04:10:00;;;;;;;15.13;3.38;;;3.40;99.90;;;;;;5104439;28;20083;-68
2022/02/19 04:12:26;;;;;;;14.73;3.25;;;3.50;99.90;;;;;;5105193;28;20036;-68
2022/02/19 04:14:52;;;;;;;19.05;3.45;;;3.60;99.90;;;;;;5101330;28;20169;-68
2022/02/19 04:17:18;;;;;;;17.45;3.90;;;3.90;99.90;;;;;;5102939;28;20070;-68
2022/02/19 04:19:44;;;;;;;21.58;3.88;;;3.70;99.90;;;;;;5105641;28;20036;-68
2022/02/19 04:22:10;;;;;;;14.95;2.67;;;3.80;99.90;;;;;;5095015;28;20050;-68
2022/02/19 04:24:35;;;;;;;13.38;3.00;;;4.00;99.90;;;;;;5095997;28;20075;-68
2022/02/19 04:27:01;;;;;;;17.17;2.28;;;4.10;99.90;;;;;;5091528;28;20040;-68
2022/02/19 04:29:27;;;;;;;9.60;2.17;;;4.00;99.90;;;;;;5103727;28;20099;-68
2022/02/19 04:31:55;;;;;;;11.27;2.28;;;4.00;99.90;;;;;;5104897;28;20047;-68
2022/02/19 04:34:22;;;;;;;9.70;2.03;;;3.80;99.90;;;;;;5107016;28;20075;-68
2022/02/19 04:36:48;;;;;;;8.05;1.63;;;3.70;99.90;;;;;;5108246;28;20039;-69
2022/02/19 04:39:16;;;;;;;9.52;2.00;;;3.50;99.90;;;;;;5107403;28;20044;-69
2022/02/19 04:41:42;;;;;;;6.05;1.60;;;3.40;99.90;;;;;;5106521;28;20103;-69
2022/02/19 04:44:07;;;;;;;8.55;2.05;;;3.70;99.90;;;;;;5107882;28;20044;-69
2022/02/19 04:46:33;;;;;;;11.85;2.40;;;3.60;99.90;;;;;;5106256;28;20044;-69
2022/02/19 04:48:59;;;;;;;9.23;2.08;;;3.60;99.90;;;;;;5107594;28;20044;-68
2022/02/19 04:51:24;;;;;;;14.40;3.17;;;3.80;99.90;;;;;;5110273;28;20044;-68
2022/02/19 04:53:50;;;;;;;16.95;2.65;;;3.50;99.90;;;;;;5087712;28;20045;-68
2022/02/19 04:56:16;;;;;;;13.25;3.22;;;3.70;99.90;;;;;;5106548;28;20047;-68
2022/02/19 04:58:41;;;;;;;15.40;3.60;;;3.90;99.90;;;;;;5107716;28;20452;-68
2022/02/19 05:01:07;;;;;;;19.63;3.08;;;3.70;99.90;;;;;;5107496;28;20047;-68
2022/02/19 05:03:35;;;;;;;12.35;3.47;;;3.80;99.90;;;;;;5106385;28;20055;-69
2022/02/19 05:06:01;;;;;;;18.95;3.53;;;3.70;99.90;;;;;;5098990;28;20044;-68
2022/02/19 05:08:27;;;;;;;25.60;3.92;;;4.00;99.90;;;;;;5100041;28;20048;-69
2022/02/19 05:10:53;;;;;;;18.50;4.30;;;4.00;99.90;;;;;;5106865;28;20132;-68
2022/02/19 05:13:18;;;;;;;25.20;5.03;;;3.80;99.90;;;;;;5107717;28;20083;-68
2022/02/19 05:15:44;;;;;;;26.00;4.45;;;3.70;99.90;;;;;;5097689;28;20049;-68
2022/02/19 05:18:10;;;;;;;23.52;3.47;;;3.70;99.90;;;;;;5093401;28;20071;-68
2022/02/19 05:20:38;;;;;;;20.42;3.85;;;3.70;99.90;;;;;;5106777;28;20062;-68
2022/02/19 05:23:04;;;;;;;21.85;4.00;;;3.90;99.90;;;;;;5095398;28;20071;-68
2022/02/19 05:25:29;;;;;;;22.23;4.15;;;3.70;99.90;;;;;;5104486;28;20052;-68
2022/02/19 05:27:55;;;;;;;19.63;3.83;;;4.00;99.90;;;;;;5105996;28;20070;-68
2022/02/19 05:30:21;;;;;;;28.58;4.65;;;3.80;99.90;;;;;;5106836;28;20070;-68
2022/02/19 05:32:47;;;;;;;16.10;3.40;;;4.20;99.90;;;;;;5083863;28;20041;-68
2022/02/19 05:35:13;;;;;;;25.30;3.95;;;3.90;99.90;;;;;;5082278;28;20108;-68
2022/02/19 05:37:39;;;;;;;23.45;4.25;;;4.00;99.90;;;;;;5108344;28;20067;-68
2022/02/19 05:40:05;;;;;;;14.55;3.20;;;4.30;99.90;;;;;;5107106;28;20575;-68
2022/02/19 05:42:31;;;;;;;19.35;4.32;;;4.40;99.90;;;;;;5102740;28;20519;-68
2022/02/19 05:44:57;;;;;;;23.98;3.97;;;4.40;99.90;;;;;;5097422;28;20040;-68
2022/02/19 05:47:23;;;;;;;19.25;3.90;;;4.30;99.90;;;;;;5106915;28;20040;-68
2022/02/19 05:49:50;;;;;;;16.83;3.83;;;4.30;99.90;;;;;;5095131;28;20040;-68
2022/02/19 05:52:17;;;;;;;25.10;3.28;;;4.30;99.90;;;;;;5102517;28;20044;-68
2022/02/19 05:54:43;;;;;;;18.95;4.22;;;4.40;99.90;;;;;;5101871;28;20049;-68
2022/02/19 05:57:10;;;;;;;19.67;3.30;;;4.00;99.90;;;;;;5105004;28;20039;-68
2022/02/19 05:59:35;;;;;;;15.15;3.45;;;4.40;99.90;;;;;;5107301;28;20051;-68
2022/02/19 06:02:01;;;;;;;14.10;3.13;;;4.30;99.90;;;;;;5107456;28;20040;-68
2022/02/19 06:04:30;;;;;;;23.48;3.95;;;4.10;99.90;;;;;;5107930;28;20073;-68
2022/02/19 06:06:55;;;;;;;23.92;5.35;;;4.30;99.90;;;;;;5107522;28;20066;-68
2022/02/19 06:09:21;;;;;;;21.02;4.20;;;4.30;99.90;;;;;;5107501;28;20036;-68
2022/02/19 06:11:47;;;;;;;24.35;3.40;;;4.00;99.90;;;;;;5106938;28;20040;-68
2022/02/19 06:14:13;;;;;;;20.20;3.83;;;3.90;99.90;;;;;;5106889;28;20047;-69
2022/02/19 06:16:39;;;;;;;18.45;3.53;;;4.00;99.90;;;;;;5091391;28;20061;-69
2022/02/19 06:19:04;;;;;;;20.38;3.75;;;3.70;99.90;;;;;;5088938;28;20052;-68
2022/02/19 06:21:30;;;;;;;17.05;3.95;;;4.10;99.90;;;;;;5097387;28;20036;-68
2022/02/19 06:23:56;;;;;;;16.42;3.25;;;3.70;99.90;;;;;;5106927;28;20092;-68
2022/02/19 06:26:22;;;;;;;21.27;3.58;;;3.80;99.90;;;;;;5093297;28;20056;-68
2022/02/19 06:28:47;;;;;;;23.15;3.70;;;4.00;99.90;;;;;;5095200;28;20044;-68
2022/02/19 06:31:13;;;;;;;18.65;3.78;;;3.70;99.90;;;;;;5107086;28;20169;-68
2022/02/19 06:33:39;;;;;;;19.33;3.53;;;4.00;99.90;;;;;;5106691;28;20044;-68
2022/02/19 06:36:06;;;;;;;17.88;3.58;;;3.70;99.90;;;;;;5106281;28;20055;-68
2022/02/19 06:38:32;;;;;;;19.50;3.00;;;3.90;99.90;;;;;;5097796;28;20504;-68
2022/02/19 06:40:59;;;;;;;12.45;2.58;;;3.70;99.90;;;;;;5099946;28;20040;-68
2022/02/19 06:43:24;;;;;;;20.98;4.20;;;3.70;99.90;;;;;;5092918;28;20040;-68
2022/02/19 06:45:50;;;;;;;18.10;3.83;;;3.80;99.90;;;;;;5105833;28;20032;-68
2022/02/19 06:48:16;;;;;;;17.63;3.28;;;3.90;99.90;;;;;;5097042;28;20036;-68
2022/02/19 06:50:42;;;;;;;15.63;2.67;;;4.00;99.90;;;;;;5105486;28;20062;-68
2022/02/19 06:53:07;;;;;;;19.50;3.28;;;4.00;99.90;;;;;;5104134;28;20032;-68
2022/02/19 06:55:33;;;;;;;14.35;4.10;;;3.90;99.90;;;;;;5097078;28;20048;-68
2022/02/19 06:57:59;;;;;;;12.43;2.72;;;3.90;99.90;;;;;;5103975;28;20044;-68
2022/02/19 07:00:24;;;;;;;19.73;4.97;;;3.70;99.90;;;;;;5106750;28;20039;-68
2022/02/19 07:02:50;;;;;;;17.52;3.25;;;3.80;99.90;;;;;;5105283;28;20044;-68
2022/02/19 07:05:16;;;;;;;13.90;3.70;;;4.10;99.90;;;;;;5106600;28;20040;-68
2022/02/19 07:07:41;;;;;;;17.10;2.92;;;4.10;99.90;;;;;;5105686;28;20113;-68
2022/02/19 07:10:09;;;;;;;17.75;2.80;;;3.80;99.90;;;;;;5106163;28;20089;-68
2022/02/19 07:12:37;;;;;;;19.98;3.45;;;3.90;99.90;;;;;;5106237;28;20044;-68
2022/02/19 07:15:06;;;;;;;23.27;3.45;;;4.00;99.90;;;;;;5101283;28;20141;-68
2022/02/19 07:17:31;;;;;;;19.88;3.65;;;4.10;99.90;;;;;;5104349;28;20142;-68
2022/02/19 07:19:57;;;;;;;17.35;3.38;;;3.90;99.90;;;;;;5104468;28;20530;-68
2022/02/19 07:22:23;;;;;;;21.15;4.93;;;3.80;99.90;;;;;;5096080;28;20070;-68
2022/02/19 07:24:48;;;;;;;16.15;3.25;;;3.70;99.90;;;;;;5104500;28;20062;-68
2022/02/19 07:27:15;;;;;;;15.35;3.17;;;3.90;99.90;;;;;;5101039;28;20044;-68
2022/02/19 07:29:41;;;;;;;15.98;2.90;;;4.30;99.90;;;;;;5095702;28;20052;-68
2022/02/19 07:32:09;;;;;;;14.60;2.35;;;4.40;99.90;;;;;;5104052;28;20108;-68
2022/02/19 07:34:34;;;;;;;15.55;2.72;;;4.40;99.90;;;;;;5095070;28;20104;-68
2022/02/19 07:37:00;;;;;;;14.10;2.97;;;4.00;99.90;;;;;;5102302;28;20047;-67
2022/02/19 07:39:26;;;;;;;16.60;3.33;;;3.80;99.90;;;;;;5093811;28;20127;-68
2022/02/19 07:41:52;;;;;;;21.38;4.03;;;3.70;99.90;;;;;;5102154;28;20121;-68
2022/02/19 07:44:18;;;;;;;22.50;3.58;;;3.70;99.90;;;;;;5104897;28;20059;-68
2022/02/19 07:46:45;;;;;;;16.13;2.92;;;3.80;99.90;;;;;;5104082;28;20044;-68
2022/02/19 08:00:08;;;;;;;15.23;3.35;;;4.20;99.90;;;;;;5103894;28;20404;-68
2022/02/19 08:02:34;;;;;;;14.45;3.17;;;4.10;99.90;;;;;;5103959;28;20055;-68
2022/02/19 08:04:59;;;;;;;14.85;2.58;;;4.30;99.90;;;;;;5104699;28;20032;-68
2022/02/19 08:07:25;;;;;;;17.63;3.08;;;4.40;99.90;;;;;;5104227;28;20044;-68
2022/02/19 08:09:51;;;;;;;16.48;2.70;;;4.30;99.90;;;;;;5105537;28;20032;-68
2022/02/19 08:12:16;;;;;;;10.13;3.55;;;4.60;99.90;;;;;;5092542;28;20109;-68
2022/02/19 08:14:42;;;;;;;20.85;3.15;;;4.60;99.90;;;;;;5098296;28;20412;-68
2022/02/19 08:17:08;;;;;;;18.08;3.08;;;4.60;99.90;;;;;;5095483;28;20052;-68
2022/02/19 08:19:34;;;;;;;30.83;3.55;;;4.60;99.90;;;;;;5104279;28;20070;-68
2022/02/19 08:22:00;;;;;;;15.57;3.22;;;4.80;99.90;;;;;;5103700;28;20060;-68
2022/02/19 08:24:26;;;;;;;13.63;3.33;;;4.80;99.90;;;;;;5103590;28;20384;-68
2022/02/19 08:26:52;;;;;;;18.15;2.60;;;4.90;99.90;;;;;;5095068;28;20097;-68
2022/02/19 08:29:17;;;;;;;13.95;3.72;;;4.80;99.90;;;;;;5100365;28;20039;-68
2022/02/19 08:31:44;;;;;;;15.10;3.35;;;4.90;99.90;;;;;;5102976;28;20171;-70
2022/02/19 08:34:10;;;;;;;16.00;2.75;;;4.80;99.90;;;;;;5104949;28;20043;-70
2022/02/19 08:36:36;;;;;;;12.13;2.42;;;4.80;99.90;;;;;;5103324;28;20042;-70
2022/02/19 08:39:02;;;;;;;17.02;2.95;;;4.60;99.90;;;;;;5080758;28;20464;-65
2022/02/19 08:41:28;;;;;;;10.93;2.75;;;4.90;99.90;;;;;;5101787;28;20044;-69
2022/02/19 08:43:54;;;;;;;13.65;2.72;;;4.60;99.90;;;;;;5101461;28;20464;-70
2022/02/19 08:46:20;;;;;;;16.33;2.47;;;4.50;99.90;;;;;;5078913;28;20488;-70
2022/02/19 08:48:45;;;;;;;13.30;2.35;;;4.70;99.90;;;;;;5101001;28;20047;-70
2022/02/19 08:51:11;;;;;;;16.35;4.07;;;4.50;99.90;;;;;;5102373;28;20064;-70
2022/02/19 08:53:37;;;;;;;8.23;2.33;;;4.40;99.90;;;;;;5116897;28;20040;-70
2022/02/19 08:56:03;;;;;;;8.50;2.22;;;4.20;99.90;;;;;;5101423;28;20068;-69
2022/02/19 08:58:29;;;;;;;12.30;2.25;;;4.40;99.90;;;;;;5104903;28;20039;-69
2022/02/19 09:00:55;;;;;;;5.68;1.83;;;4.40;99.90;;;;;;5103250;28;20089;-69
2022/02/19 09:03:20;;;;;;;11.98;2.67;;;4.20;99.90;;;;;;5103365;28;20051;-69
2022/02/19 09:05:46;;;;;;;12.93;2.90;;;4.30;99.90;;;;;;5103082;28;20040;-69
2022/02/19 09:08:13;;;;;;;11.55;2.58;;;4.20;99.90;;;;;;5100974;28;20072;-69
2022/02/19 09:10:39;;;;;;;12.23;2.90;;;4.50;99.90;;;;;;5102446;28;20052;-69
2022/02/19 09:13:05;;;;;;;17.98;2.67;;;4.50;99.90;;;;;;5102928;28;20112;-70
2022/02/19 09:15:31;;;;;;;14.07;3.03;;;5.00;99.90;;;;;;5101933;28;20044;-74
2022/02/19 09:17:56;;;;;;;14.40;2.85;;;5.10;99.90;;;;;;5102718;28;20111;-70
2022/02/19 09:20:22;;;;;;;19.30;3.42;;;5.20;99.90;;;;;;5087660;28;20082;-72
2022/02/19 09:22:48;;;;;;;10.98;2.65;;;5.30;99.90;;;;;;5101248;28;20076;-71
2022/02/19 09:25:15;;;;;;;16.40;3.92;;;5.30;99.90;;;;;;5105813;28;20040;-72
2022/02/19 09:27:41;;;;;;;17.67;2.83;;;5.40;99.90;;;;;;5107316;28;20040;-72
2022/02/19 09:30:09;;;;;;;12.90;2.22;;;5.30;99.90;;;;;;5092650;28;20555;-70
2022/02/19 09:32:35;;;;;;;18.42;2.80;;;5.50;99.90;;;;;;5107066;28;20040;-71
2022/02/19 09:35:02;;;;;;;17.40;3.88;;;5.60;99.90;;;;;;5107212;28;20541;-71
2022/02/19 09:37:28;;;;;;;10.75;2.47;;;5.70;99.90;;;;;;5106114;28;20057;-71
2022/02/19 09:39:55;;;;;;;12.18;2.83;;;5.70;99.90;;;;;;5106968;28;20119;-71
2022/02/19 09:42:22;;;;;;;13.35;2.40;;;5.70;99.90;;;;;;5107257;28;20036;-71
2022/02/19 09:44:49;;;;;;;9.50;2.72;;;5.70;99.90;;;;;;5105174;28;20119;-71
2022/02/19 09:47:23;;;;;;;19.20;4.10;;;5.90;99.90;;;;;;5105298;28;20082;-71
2022/02/19 09:49:49;;;;;;;27.67;3.13;;;6.20;99.90;;;;;;5105004;28;20047;-68
2022/02/19 09:52:15;;;;;;;12.88;3.33;;;6.20;99.90;;;;;;5099852;28;20147;-68
2022/02/19 09:54:41;;;;;;;12.07;2.10;;;6.20;99.90;;;;;;5102072;28;20028;-77
2022/02/19 09:57:06;;;;;;;12.57;2.90;;;6.30;99.90;;;;;;5106439;28;20036;-70
2022/02/19 09:59:32;;;;;;;12.50;2.50;;;6.20;99.90;;;;;;5106132;28;20148;-69
2022/02/19 10:02:06;;;;;;;16.15;2.72;;;6.10;99.90;;;;;;5105868;28;20066;-69
2022/02/19 10:04:32;;;;;;;15.05;3.17;;;6.00;99.90;;;;;;5106203;28;20103;-69
2022/02/19 10:07:10;;;;;;;16.92;3.30;;;5.70;99.90;;;;;;5107465;28;20043;-70
2022/02/19 10:09:40;;;;;;;17.33;2.75;;;5.60;99.90;;;;;;5105608;28;20072;-71
2022/02/19 10:12:11;;;;;;;14.27;3.47;;;5.70;99.90;;;;;;5104949;28;20052;-75
2022/02/19 10:14:39;;;;;;;11.23;3.22;;;5.50;99.90;;;;;;5105817;28;20046;-70
2022/02/19 10:17:17;;;;;;;16.60;2.78;;;5.80;99.90;;;;;;5105238;28;20052;-68
2022/02/19 10:19:54;;;;;;;14.75;2.45;;;5.70;99.90;;;;;;5104624;28;20048;-70
2022/02/19 10:22:27;;;;;;;14.98;3.05;;;5.90;99.90;;;;;;5099444;28;20053;-72
2022/02/19 10:25:04;;;;;;;12.27;3.03;;;5.90;99.90;;;;;;5099868;28;20048;-69
2022/02/19 10:27:46;;;;;;;18.02;3.30;;;5.90;99.90;;;;;;5105216;28;20051;-69
2022/02/19 10:30:24;;;;;;;15.43;3.40;;;5.90;99.90;;;;;;5102695;28;20090;-69
2022/02/19 10:32:56;;;;;;;18.10;3.42;;;6.00;99.90;;;;;;5105254;28;20040;-69
2022/02/19 10:35:42;;;;;;;14.57;2.40;;;6.10;99.90;;;;;;5101659;28;20135;-69
2022/02/19 10:38:11;;;;;;;14.45;2.50;;;6.00;99.90;;;;;;5105104;28;20403;-69
2022/02/19 10:40:42;;;;;;;11.50;2.90;;;6.30;99.90;;;;;;5086882;28;20048;-69
2022/02/19 10:43:10;;;;;;;16.17;3.15;;;6.20;99.90;;;;;;5105354;28;20051;-69
2022/02/19 10:45:50;;;;;;;13.68;2.38;;;6.30;99.90;;;;;;5104246;28;20091;-70
2022/02/19 10:48:23;;;;;;;17.45;2.88;;;6.20;99.90;;;;;;5105911;28;20044;-68
2022/02/19 10:50:49;;;;;;;17.23;2.95;;;6.00;99.90;;;;;;5103838;28;20040;-69
2022/02/19 10:53:27;;;;;;;19.05;3.72;;;6.20;99.90;;;;;;5103921;28;20040;-70
2022/02/19 10:55:54;;;;;;;17.33;3.25;;;6.50;99.90;;;;;;5104999;28;20404;-71
2022/02/19 10:58:21;;;;;;;16.58;3.05;;;6.60;99.90;;;;;;5104513;28;20142;-67
2022/02/19 11:00:47;;;;;;;13.75;2.53;;;6.50;99.90;;;;;;5097771;28;20040;-67
2022/02/19 11:03:13;;;;;;;13.45;2.70;;;6.30;99.90;;;;;;5103379;28;20158;-71
2022/02/19 11:05:40;;;;;;;13.70;2.58;;;6.10;99.90;;;;;;5105365;28;20096;-70
2022/02/19 11:08:06;;;;;;;17.27;3.00;;;6.20;99.90;;;;;;5104874;28;20052;-66
2022/02/19 11:10:33;;;;;;;12.30;3.22;;;6.10;99.90;;;;;;5100636;28;20041;-69
2022/02/19 11:13:03;;;;;;;14.88;2.85;;;6.20;99.90;;;;;;5100222;28;20048;-70
2022/02/19 11:15:29;;;;;;;14.70;2.60;;;6.10;99.90;;;;;;5097571;28;20447;-71
2022/02/19 11:17:55;;;;;;;12.95;2.65;;;6.20;99.90;;;;;;5100928;28;20338;-72
2022/02/19 11:20:25;;;;;;;19.27;2.58;;;6.30;99.90;;;;;;5101556;28;20056;-71
2022/02/19 11:22:53;;;;;;;14.93;2.45;;;6.40;99.90;;;;;;5060629;28;20044;-71
2022/02/19 11:25:20;;;;;;;12.43;2.85;;;6.70;99.90;;;;;;5103942;28;20071;-70
2022/02/19 11:28:08;;;;;;;14.32;2.60;;;6.90;99.90;;;;;;5103985;28;20055;-70
2022/02/19 11:30:39;;;;;;;10.43;2.22;;;6.70;99.90;;;;;;5103409;28;20109;-71
2022/02/19 11:33:07;;;;;;;13.07;2.75;;;6.60;99.90;;;;;;5103909;28;20047;-72
2022/02/19 11:35:36;;;;;;;15.18;2.63;;;6.40;99.90;;;;;;5076749;28;20048;-70
2022/02/19 11:38:19;;;;;;;11.30;2.50;;;6.40;99.90;;;;;;5103010;28;20059;-71
2022/02/19 11:40:45;;;;;;;18.65;2.83;;;6.30;99.90;;;;;;5084505;28;20113;-71
2022/02/19 11:43:34;;;;;;;12.82;2.20;;;6.40;99.90;;;;;;5100011;28;20135;-71
2022/02/19 11:46:08;;;;;;;14.25;2.72;;;6.70;99.90;;;;;;5103166;28;20318;-71
2022/02/19 11:48:34;;;;;;;9.48;2.75;;;7.00;99.90;;;;;;5094556;28;20040;-71
2022/02/19 11:51:29;;;;;;;11.95;2.63;;;7.20;99.90;;;;;;5092715;28;20485;-71
2022/02/19 11:54:04;;;;;;;11.93;2.70;;;7.20;99.90;;;;;;5053261;28;20056;-71
2022/02/19 11:56:35;;;;;;;14.88;2.80;;;7.00;99.90;;;;;;5063674;28;20104;-71
2022/02/19 11:59:02;;;;;;;13.85;2.25;;;6.70;99.90;;;;;;5066078;28;20053;-72
2022/02/19 12:01:29;;;;;;;11.05;2.60;;;6.60;99.90;;;;;;5065777;28;20055;-71
2022/02/19 12:04:10;;;;;;;11.48;2.28;;;6.50;99.90;;;;;;5046393;28;20060;-70
2022/02/19 12:06:46;;;;;;;18.50;3.15;;;6.40;99.90;;;;;;5064046;28;20049;-70
2022/02/19 12:09:19;;;;;;;16.55;3.13;;;6.50;99.90;;;;;;5064830;28;20054;-70
2022/02/19 12:11:59;;;;;;;15.07;2.47;;;6.40;99.90;;;;;;5082333;28;20459;-68
2022/02/19 12:14:40;;;;;;;16.73;2.75;;;6.60;99.90;;;;;;5081205;28;20443;-70
2022/02/19 12:17:10;;;;;;;13.23;2.58;;;7.00;99.90;;;;;;5070011;28;20066;-69
2022/02/19 12:19:51;;;;;;;;;;;7.00;99.90;;;;;;5064822;28;20055;-70
2022/02/19 12:22:33;;;;;;;12.95;2.72;;;6.80;99.90;;;;;;5054450;28;20012;-69
2022/02/19 12:25:00;;;;;;;10.55;3.00;;;6.90;99.90;;;;;;5065256;28;20045;-68
2022/02/19 12:27:26;;;;;;;6.55;2.45;;;6.90;99.90;;;;;;5065299;28;20071;-72
2022/02/19 12:30:15;;;;;;;11.75;2.13;;;6.90;99.90;;;;;;5076754;28;20056;-68
2022/02/19 12:32:45;;;;;;;11.07;2.38;;;7.00;99.90;;;;;;5099990;28;20044;-70
2022/02/19 12:35:11;;;;;;;11.35;2.65;;;7.20;99.90;;;;;;5101104;28;20103;-70
2022/02/19 12:37:37;;;;;;;7.45;2.28;;;7.70;99.90;;;;;;5101557;28;20079;-70
2022/02/19 12:40:04;;;;;;;14.77;2.92;;;7.60;99.90;;;;;;5103122;28;20048;-70
2022/02/19 12:42:31;;;;;;;10.13;2.40;;;7.90;99.90;;;;;;5086723;28;20442;-70
2022/02/19 12:45:06;;;;;;;12.77;2.00;;;8.20;99.90;;;;;;5104193;28;20083;-70
2022/02/19 12:47:36;;;;;;;9.82;2.63;;;8.30;99.90;;;;;;5103668;28;20064;-70
2022/02/19 12:50:04;;;;;;;8.10;2.17;;;8.20;99.90;;;;;;5100176;28;20044;-70
2022/02/19 12:52:30;;;;;;;11.82;2.22;;;8.30;99.90;;;;;;5084668;28;20044;-70
2022/02/19 12:54:56;;;;;;;12.90;2.25;;;8.10;99.90;;;;;;5091390;28;20384;-70
2022/02/19 12:57:23;;;;;;;16.33;2.20;;;8.10;99.90;;;;;;5087797;28;20048;-70
2022/02/19 12:59:52;;;;;;;10.68;2.22;;;8.20;99.90;;;;;;5086225;28;20072;-70